Time;durP1;ratioP1;P1;durP2;ratioP2;P2;SDS_P1;SDS_P2;PMS_P1;PMS_P2;Temp;Humidity;BMP_temperature;BMP_pressure;BME280_temperature;BME280_humidity;BME280_pressure;Samples;Min_cycle;Max_cycle;Signal;HPM_P1;HPM_P2
2021/12/26 00:01:51;;;;;;;25.67;24.10;;;0.80;99.90;;;;;;4978467;28;20455;-82
2021/12/26 00:04:18;;;;;;;20.40;18.90;;;0.90;99.90;;;;;;4978177;28;20475;-83
2021/12/26 00:06:45;;;;;;;22.70;21.10;;;0.80;99.90;;;;;;4978278;28;20459;-83
2021/12/26 00:09:12;;;;;;;22.40;20.90;;;0.90;99.90;;;;;;4977938;28;20458;-83
2021/12/26 00:11:39;;;;;;;16.50;15.10;;;0.90;99.90;;;;;;4978480;28;20947;-83
2021/12/26 00:14:06;;;;;;;11.60;10.60;;;0.90;99.90;;;;;;4978162;28;20471;-83
2021/12/26 00:16:34;;;;;;;12.67;11.37;;;1.00;99.90;;;;;;4978344;28;20459;-83
2021/12/26 00:19:02;;;;;;;12.07;10.97;;;1.00;99.90;;;;;;4978255;28;20451;-83
2021/12/26 00:21:29;;;;;;;10.07;9.07;;;1.10;99.90;;;;;;4978385;28;20943;-83
2021/12/26 00:23:58;;;;;;;9.70;8.70;;;1.10;99.90;;;;;;4978103;28;20555;-84
2021/12/26 00:26:25;;;;;;;12.00;8.83;;;1.20;99.90;;;;;;4978420;28;20459;-83
2021/12/26 00:28:52;;;;;;;10.10;9.10;;;1.30;99.90;;;;;;4978031;28;20463;-84
2021/12/26 00:31:19;;;;;;;12.60;11.17;;;1.30;99.90;;;;;;4977977;28;20558;-83
2021/12/26 00:33:46;;;;;;;8.57;7.50;;;1.30;99.90;;;;;;4977633;28;20475;-83
2021/12/26 00:36:17;;;;;;;9.43;7.60;;;1.30;99.90;;;;;;4978070;28;20451;-83
2021/12/26 00:38:44;;;;;;;8.90;7.10;;;1.40;99.90;;;;;;4977850;28;20554;-84
2021/12/26 00:41:11;;;;;;;11.93;7.07;;;1.30;99.90;;;;;;4977610;28;20451;-83
2021/12/26 00:43:38;;;;;;;7.80;5.93;;;1.30;99.90;;;;;;4977944;28;20483;-83
2021/12/26 00:46:05;;;;;;;9.97;7.53;;;1.40;99.90;;;;;;4977636;28;20471;-82
2021/12/26 00:48:32;;;;;;;11.10;7.07;;;1.40;99.90;;;;;;4977762;28;20461;-83
2021/12/26 00:50:59;;;;;;;7.50;6.53;;;1.40;99.90;;;;;;4977357;28;20461;-83
2021/12/26 00:53:28;;;;;;;9.40;8.43;;;1.40;99.90;;;;;;4977495;28;20537;-83
2021/12/26 00:55:55;;;;;;;11.20;8.80;;;1.40;99.90;;;;;;4977207;28;20451;-85
2021/12/26 00:58:22;;;;;;;9.43;7.90;;;1.50;99.90;;;;;;4977125;28;20459;-83
2021/12/26 01:00:51;;;;;;;7.20;6.40;;;1.40;99.90;;;;;;4977561;28;20455;-83
2021/12/26 01:03:19;;;;;;;10.70;7.80;;;1.40;99.90;;;;;;4977153;28;20475;-82
2021/12/26 01:05:50;;;;;;;11.37;7.93;;;1.40;99.90;;;;;;4976781;28;20482;-83
2021/12/26 01:08:19;;;;;;;9.30;7.43;;;1.50;99.90;;;;;;4976827;28;20455;-82
2021/12/26 01:10:53;;;;;;;9.97;7.40;;;1.50;99.90;;;;;;4976841;28;20486;-82
2021/12/26 01:13:27;;;;;;;8.50;7.40;;;1.50;99.90;;;;;;4957874;28;20550;-83
2021/12/26 01:15:59;;;;;;;11.00;8.73;;;1.40;99.90;;;;;;4968521;28;20450;-83
2021/12/26 01:18:32;;;;;;;9.23;8.23;;;1.40;99.90;;;;;;4972861;28;20450;-83
2021/12/26 01:21:03;;;;;;;10.77;9.67;;;1.40;99.90;;;;;;4959425;28;20448;-83
2021/12/26 01:23:31;;;;;;;10.00;8.93;;;1.40;99.90;;;;;;4958001;28;20480;-83
2021/12/26 01:26:00;;;;;;;9.10;8.20;;;1.30;99.90;;;;;;4970646;28;20475;-81
2021/12/26 01:28:28;;;;;;;9.73;8.73;;;1.30;99.90;;;;;;4976338;28;20455;-85
2021/12/26 01:30:56;;;;;;;10.27;7.57;;;1.30;99.90;;;;;;4977101;28;20467;-83
2021/12/26 01:33:23;;;;;;;9.73;7.70;;;1.30;99.90;;;;;;4976823;28;20475;-82
2021/12/26 01:35:50;;;;;;;11.50;8.77;;;1.30;99.90;;;;;;4976581;28;20971;-83
2021/12/26 01:38:18;;;;;;;9.43;8.53;;;1.20;99.90;;;;;;4976706;28;20470;-83
2021/12/26 01:40:49;;;;;;;9.55;8.55;;;1.20;99.90;;;;;;4976820;28;20463;-82
2021/12/26 01:43:19;;;;;;;9.80;7.77;;;1.30;99.90;;;;;;4957429;28;20247;-83
2021/12/26 01:45:47;;;;;;;11.63;8.27;;;1.20;99.90;;;;;;4973135;28;20565;-84
2021/12/26 01:48:13;;;;;;;10.47;8.70;;;1.30;99.90;;;;;;4975735;28;20463;-85
2021/12/26 01:50:42;;;;;;;9.47;7.93;;;1.30;99.90;;;;;;4975231;28;20455;-83
2021/12/26 01:53:10;;;;;;;10.40;9.20;;;1.30;99.90;;;;;;4977046;28;20478;-82
2021/12/26 01:55:40;;;;;;;10.90;9.60;;;1.30;99.90;;;;;;4976179;28;20458;-83
2021/12/26 01:58:10;;;;;;;9.40;8.40;;;1.30;99.90;;;;;;4975924;28;20536;-82
2021/12/26 02:00:39;;;;;;;10.80;8.97;;;1.30;99.90;;;;;;4975836;28;20463;-83
2021/12/26 02:03:07;;;;;;;11.37;10.27;;;1.20;99.90;;;;;;4976583;28;20486;-83
2021/12/26 02:05:34;;;;;;;11.10;10.00;;;1.20;99.90;;;;;;4975618;28;20474;-83
2021/12/26 02:08:01;;;;;;;12.00;10.00;;;1.10;99.90;;;;;;4976030;28;20452;-83
2021/12/26 02:10:28;;;;;;;14.80;13.50;;;1.00;99.90;;;;;;4975518;28;20458;-83
2021/12/26 02:12:55;;;;;;;15.40;13.90;;;1.10;99.90;;;;;;4975554;28;20471;-83
2021/12/26 02:15:22;;;;;;;17.17;15.67;;;0.90;99.90;;;;;;4975993;28;20451;-83
2021/12/26 02:17:50;;;;;;;16.93;15.53;;;0.90;99.90;;;;;;4975702;28;20459;-82
2021/12/26 02:20:22;;;;;;;17.63;16.23;;;0.90;99.90;;;;;;4975748;28;20459;-83
2021/12/26 02:22:55;;;;;;;20.50;19.00;;;0.90;99.90;;;;;;4975979;28;20573;-83
2021/12/26 02:25:31;;;;;;;20.67;19.00;;;0.90;99.90;;;;;;4956685;28;20484;-83
2021/12/26 02:27:57;;;;;;;19.40;17.63;;;1.10;99.90;;;;;;4975360;28;20458;-83
2021/12/26 02:30:24;;;;;;;19.20;17.57;;;1.10;99.90;;;;;;4975539;28;20458;-83
2021/12/26 02:32:52;;;;;;;20.30;18.57;;;1.10;99.90;;;;;;4975579;28;20837;-83
2021/12/26 02:35:22;;;;;;;21.67;19.93;;;1.20;99.90;;;;;;4976009;28;20461;-83
2021/12/26 02:37:49;;;;;;;18.83;17.30;;;1.20;99.90;;;;;;4975237;28;20947;-83
2021/12/26 02:40:17;;;;;;;18.93;17.13;;;1.20;99.90;;;;;;4975573;28;20835;-83
2021/12/26 02:42:45;;;;;;;17.93;16.47;;;1.20;99.90;;;;;;4975079;28;21047;-83
2021/12/26 02:45:12;;;;;;;16.83;15.40;;;1.30;99.90;;;;;;4975617;28;20475;-83
2021/12/26 02:47:41;;;;;;;17.23;15.80;;;1.30;99.90;;;;;;4975637;28;20458;-83
2021/12/26 02:50:12;;;;;;;16.47;15.10;;;1.30;99.90;;;;;;4974629;28;20455;-83
2021/12/26 02:52:40;;;;;;;18.67;17.27;;;1.20;99.90;;;;;;4975102;28;20999;-84
2021/12/26 02:55:09;;;;;;;20.43;18.80;;;1.30;99.90;;;;;;4974974;28;20451;-84
2021/12/26 02:57:38;;;;;;;20.20;18.60;;;1.30;99.90;;;;;;4975035;28;20466;-84
2021/12/26 03:00:09;;;;;;;17.57;16.17;;;1.30;99.90;;;;;;4974044;28;20455;-83
2021/12/26 03:02:36;;;;;;;18.50;16.93;;;1.40;99.90;;;;;;4974828;28;20478;-83
2021/12/26 03:05:04;;;;;;;22.80;20.40;;;1.30;99.90;;;;;;4976795;28;20490;-83
2021/12/26 03:07:31;;;;;;;16.83;15.47;;;1.30;99.90;;;;;;4976464;28;20455;-83
2021/12/26 03:10:00;;;;;;;18.77;17.10;;;1.30;99.90;;;;;;4973220;28;20456;-84
2021/12/26 03:12:28;;;;;;;17.27;15.93;;;1.30;99.90;;;;;;4975343;28;20504;-83
2021/12/26 03:14:55;;;;;;;16.60;15.13;;;1.30;99.90;;;;;;4974381;28;20498;-83
2021/12/26 03:17:21;;;;;;;20.57;18.77;;;1.30;99.90;;;;;;4974429;28;20523;-81
2021/12/26 03:19:48;;;;;;;20.73;19.07;;;1.30;99.90;;;;;;4974489;28;20978;-82
2021/12/26 03:22:15;;;;;;;21.27;19.40;;;1.40;99.90;;;;;;4974363;28;20458;-81
2021/12/26 03:24:43;;;;;;;20.40;18.63;;;1.40;99.90;;;;;;4974999;28;20518;-81
2021/12/26 03:27:12;;;;;;;21.53;20.13;;;1.40;99.90;;;;;;4974803;28;20505;-83
2021/12/26 03:29:39;;;;;;;26.03;23.83;;;1.40;99.90;;;;;;4975439;28;20824;-83
2021/12/26 03:32:07;;;;;;;25.60;23.63;;;1.50;99.90;;;;;;4974558;28;20955;-81
2021/12/26 03:34:34;;;;;;;26.63;24.60;;;1.50;99.90;;;;;;4975545;28;20462;-82
2021/12/26 03:37:01;;;;;;;28.20;26.03;;;1.50;99.90;;;;;;4974509;28;20455;-81
2021/12/26 03:39:28;;;;;;;29.70;27.47;;;1.60;99.90;;;;;;4975764;28;20475;-82
2021/12/26 03:41:56;;;;;;;32.10;30.00;;;1.60;99.90;;;;;;4975810;28;20819;-82
2021/12/26 03:44:24;;;;;;;37.43;35.00;;;1.60;99.90;;;;;;4976931;28;20474;-82
2021/12/26 03:46:50;;;;;;;33.77;31.40;;;1.70;99.90;;;;;;4975862;28;20487;-82
2021/12/26 03:49:17;;;;;;;36.07;33.83;;;1.60;99.90;;;;;;4977099;28;20482;-82
2021/12/26 03:51:44;;;;;;;33.60;31.20;;;1.70;99.90;;;;;;4980881;28;20485;-81
2021/12/26 03:54:11;;;;;;;30.07;27.87;;;1.70;99.90;;;;;;4974938;28;20482;-81
2021/12/26 03:56:38;;;;;;;33.33;30.83;;;1.70;99.90;;;;;;4975465;28;20455;-81
2021/12/26 03:59:06;;;;;;;28.30;26.00;;;1.70;99.90;;;;;;4974687;28;20535;-81
2021/12/26 04:01:34;;;;;;;27.43;25.33;;;1.80;99.90;;;;;;4975404;28;20455;-81
2021/12/26 04:04:01;;;;;;;25.97;23.87;;;1.80;99.90;;;;;;4975077;28;20497;-81
2021/12/26 04:06:28;;;;;;;24.93;22.73;;;1.80;99.90;;;;;;4975150;28;20834;-81
2021/12/26 04:08:55;;;;;;;26.30;24.40;;;1.80;99.90;;;;;;4974691;28;20455;-81
2021/12/26 04:11:22;;;;;;;26.60;24.00;;;1.90;99.90;;;;;;4975268;28;20473;-81
2021/12/26 04:13:49;;;;;;;24.40;22.40;;;1.90;99.90;;;;;;4974289;28;20570;-82
2021/12/26 04:16:16;;;;;;;23.80;21.70;;;1.90;99.90;;;;;;4978760;28;20453;-82
2021/12/26 04:18:44;;;;;;;19.70;17.90;;;2.00;99.90;;;;;;4978748;28;20459;-82
2021/12/26 04:21:11;;;;;;;21.10;19.10;;;1.90;99.90;;;;;;4959692;28;20460;-82
2021/12/26 04:23:37;;;;;;;21.40;19.50;;;1.90;99.90;;;;;;4959148;28;20483;-82
2021/12/26 04:26:04;;;;;;;24.23;22.13;;;2.00;99.90;;;;;;4975778;28;20471;-82
2021/12/26 04:28:31;;;;;;;21.93;20.13;;;2.00;99.90;;;;;;4978084;28;20462;-82
2021/12/26 04:30:58;;;;;;;19.50;17.60;;;2.00;99.90;;;;;;4978274;28;20835;-81
2021/12/26 04:33:25;;;;;;;23.43;21.10;;;1.90;99.90;;;;;;4977714;28;20475;-82
2021/12/26 04:35:54;;;;;;;22.90;20.90;;;2.00;99.90;;;;;;4978746;28;20461;-82
2021/12/26 04:38:20;;;;;;;21.63;19.63;;;2.00;99.90;;;;;;4978752;28;20459;-82
2021/12/26 04:40:48;;;;;;;24.83;22.73;;;1.90;99.90;;;;;;4979025;28;20459;-82
2021/12/26 04:43:15;;;;;;;21.73;20.00;;;1.90;99.90;;;;;;4977606;28;20852;-82
2021/12/26 04:45:42;;;;;;;23.70;21.50;;;1.90;99.90;;;;;;4976974;28;20474;-82
2021/12/26 04:48:09;;;;;;;21.03;19.00;;;2.00;99.90;;;;;;4977208;28;20959;-81
2021/12/26 04:50:36;;;;;;;22.80;20.80;;;2.00;99.90;;;;;;4977359;28;20820;-82
2021/12/26 04:53:04;;;;;;;21.30;19.20;;;2.00;99.90;;;;;;4976351;28;20471;-82
2021/12/26 04:55:31;;;;;;;21.23;19.27;;;1.90;99.90;;;;;;4977617;28;20454;-81
2021/12/26 04:57:58;;;;;;;20.70;18.80;;;1.90;99.90;;;;;;4977435;28;20451;-83
2021/12/26 05:00:28;;;;;;;19.60;17.63;;;2.00;99.90;;;;;;4977920;28;20451;-82
2021/12/26 05:02:56;;;;;;;21.07;18.87;;;2.00;99.90;;;;;;4978180;28;20477;-82
2021/12/26 05:05:26;;;;;;;19.00;17.00;;;2.00;99.90;;;;;;4977626;28;20482;-82
2021/12/26 05:07:54;;;;;;;21.43;19.63;;;1.90;99.90;;;;;;4976349;28;20455;-82
2021/12/26 05:10:24;;;;;;;20.50;18.43;;;1.90;99.90;;;;;;4977451;28;20459;-82
2021/12/26 05:12:51;;;;;;;21.40;19.47;;;2.00;99.90;;;;;;4977442;28;20728;-80
2021/12/26 05:15:21;;;;;;;22.53;20.40;;;2.00;99.90;;;;;;4976843;28;20823;-80
2021/12/26 05:17:48;;;;;;;22.00;19.83;;;2.00;99.90;;;;;;4967775;28;20451;-81
2021/12/26 05:20:20;;;;;;;22.50;20.30;;;2.00;99.90;;;;;;4975581;28;20463;-83
2021/12/26 05:22:47;;;;;;;20.13;18.03;;;2.10;99.90;;;;;;4976617;28;20602;-82
2021/12/26 05:25:14;;;;;;;19.70;17.77;;;2.10;99.90;;;;;;4975783;28;20459;-82
2021/12/26 05:27:43;;;;;;;21.17;19.17;;;2.00;99.90;;;;;;4976690;28;20538;-82
2021/12/26 05:30:13;;;;;;;22.00;19.77;;;2.10;99.90;;;;;;4976391;28;20459;-82
2021/12/26 05:32:42;;;;;;;21.40;19.37;;;2.00;99.90;;;;;;4976302;28;20510;-82
2021/12/26 05:35:13;;;;;;;21.47;19.67;;;2.00;99.90;;;;;;4975665;28;20895;-82
2021/12/26 05:37:41;;;;;;;25.13;22.97;;;2.10;99.90;;;;;;4977039;28;20451;-82
2021/12/26 05:40:16;;;;;;;24.93;22.60;;;2.00;99.90;;;;;;4977704;28;20787;-82
2021/12/26 05:42:47;;;;;;;24.40;22.30;;;2.00;99.90;;;;;;4977359;28;20848;-82
2021/12/26 05:45:14;;;;;;;23.27;21.13;;;1.90;99.90;;;;;;4962316;28;20460;-82
2021/12/26 05:47:41;;;;;;;27.23;24.73;;;1.90;99.90;;;;;;4976483;28;20986;-82
2021/12/26 05:50:12;;;;;;;29.47;26.97;;;2.00;99.90;;;;;;4975394;28;20829;-83
2021/12/26 05:52:39;;;;;;;28.77;26.37;;;1.90;99.90;;;;;;4976686;28;20566;-83
2021/12/26 05:55:07;;;;;;;28.77;26.40;;;1.80;99.90;;;;;;4976808;28;20498;-82
2021/12/26 05:57:34;;;;;;;30.47;27.77;;;1.80;99.90;;;;;;4976912;28;20459;-82
2021/12/26 06:00:05;;;;;;;33.17;30.70;;;1.80;99.90;;;;;;4976481;28;20462;-81
2021/12/26 06:02:32;;;;;;;34.70;32.17;;;1.80;99.90;;;;;;4976103;28;20481;-82
2021/12/26 06:04:58;;;;;;;37.00;34.20;;;1.70;99.90;;;;;;4975937;28;20458;-81
2021/12/26 06:07:25;;;;;;;35.60;32.80;;;1.70;99.90;;;;;;4977516;28;20475;-81
2021/12/26 06:09:52;;;;;;;34.20;31.50;;;1.70;99.90;;;;;;4976652;28;20458;-82
2021/12/26 06:12:19;;;;;;;38.37;35.40;;;1.70;99.90;;;;;;4976827;28;20474;-81
2021/12/26 06:14:46;;;;;;;46.80;43.67;;;1.70;99.90;;;;;;4977136;28;20455;-81
2021/12/26 06:17:14;;;;;;;44.20;41.10;;;1.70;99.90;;;;;;4976982;28;20482;-82
2021/12/26 06:19:41;;;;;;;48.50;45.50;;;1.70;99.90;;;;;;4976929;28;20537;-81
2021/12/26 06:22:09;;;;;;;46.50;43.10;;;1.70;99.90;;;;;;4976891;28;21032;-82
2021/12/26 06:24:36;;;;;;;44.70;41.37;;;1.80;99.90;;;;;;4976928;28;20458;-82
2021/12/26 06:27:02;;;;;;;46.07;43.07;;;1.80;99.90;;;;;;4977304;28;20478;-82
2021/12/26 06:29:29;;;;;;;46.10;43.07;;;1.80;99.90;;;;;;4977953;28;20451;-82
2021/12/26 06:31:56;;;;;;;43.67;40.57;;;1.80;99.90;;;;;;4978014;28;20458;-82
2021/12/26 06:34:24;;;;;;;45.13;41.93;;;1.80;99.90;;;;;;4976207;28;20570;-82
2021/12/26 06:36:51;;;;;;;51.03;47.60;;;1.90;99.90;;;;;;4977899;28;20967;-83
2021/12/26 06:39:18;;;;;;;50.83;47.40;;;1.90;99.90;;;;;;4976313;28;20462;-82
2021/12/26 06:41:45;;;;;;;49.27;45.57;;;2.00;99.90;;;;;;4976324;28;20517;-82
2021/12/26 06:44:12;;;;;;;42.77;39.77;;;2.00;99.90;;;;;;4976343;28;20471;-83
2021/12/26 06:46:40;;;;;;;43.77;41.00;;;2.00;99.90;;;;;;4976924;28;20479;-83
2021/12/26 06:49:07;;;;;;;41.60;38.50;;;2.00;99.90;;;;;;4977833;28;20451;-82
2021/12/26 06:51:36;;;;;;;39.13;36.23;;;2.00;99.90;;;;;;4977659;28;20842;-82
2021/12/26 06:54:02;;;;;;;36.00;33.07;;;2.10;99.90;;;;;;4975965;28;21006;-82
2021/12/26 06:56:30;;;;;;;32.37;29.87;;;2.00;99.90;;;;;;4974643;28;20799;-81
2021/12/26 06:58:57;;;;;;;32.13;29.50;;;2.10;99.90;;;;;;4974624;28;20830;-82
2021/12/26 07:01:24;;;;;;;32.40;29.50;;;2.00;99.90;;;;;;4974659;28;20466;-81
2021/12/26 07:03:54;;;;;;;33.10;30.30;;;2.20;99.90;;;;;;4974629;28;20471;-82
2021/12/26 07:06:21;;;;;;;36.47;33.37;;;2.10;99.90;;;;;;4974973;28;20466;-82
2021/12/26 07:08:57;;;;;;;35.60;33.20;;;2.10;99.90;;;;;;4975286;28;20918;-82
2021/12/26 07:11:24;;;;;;;38.73;35.87;;;2.20;99.90;;;;;;4975713;28;21012;-82
2021/12/26 07:13:56;;;;;;;35.93;33.30;;;2.10;99.90;;;;;;4977795;28;20475;-85
2021/12/26 07:16:23;;;;;;;32.43;29.73;;;2.10;99.90;;;;;;4977784;28;20459;-82
2021/12/26 07:18:50;;;;;;;31.50;28.80;;;2.10;99.90;;;;;;4980177;28;21022;-83
2021/12/26 07:21:17;;;;;;;33.33;30.73;;;2.10;99.90;;;;;;4977922;28;20455;-83
2021/12/26 07:23:44;;;;;;;32.33;29.43;;;2.10;99.90;;;;;;4978654;28;20478;-83
2021/12/26 07:26:15;;;;;;;30.57;27.93;;;2.20;99.90;;;;;;4977396;28;20968;-82
2021/12/26 07:28:44;;;;;;;30.80;28.10;;;2.20;99.90;;;;;;4985629;28;20522;-83
2021/12/26 07:31:11;;;;;;;30.43;27.57;;;2.20;99.90;;;;;;4983195;28;20550;-84
2021/12/26 07:33:39;;;;;;;31.47;28.73;;;2.20;99.90;;;;;;4977912;28;20562;-83
2021/12/26 07:36:06;;;;;;;32.37;29.47;;;2.20;99.90;;;;;;4983965;28;20833;-84
2021/12/26 07:38:33;;;;;;;34.77;31.70;;;2.20;99.90;;;;;;4981498;28;20754;-84
2021/12/26 07:41:00;;;;;;;30.83;28.10;;;2.20;99.90;;;;;;4980565;28;20466;-83
2021/12/26 07:43:30;;;;;;;34.70;32.00;;;2.20;99.90;;;;;;4978863;28;20550;-82
2021/12/26 07:45:57;;;;;;;35.00;32.40;;;2.20;99.90;;;;;;4961162;28;20464;-83
2021/12/26 07:48:24;;;;;;;30.60;27.90;;;2.20;99.90;;;;;;4974831;28;21010;-84
2021/12/26 07:50:51;;;;;;;28.37;25.77;;;2.30;99.90;;;;;;4980036;28;20533;-83
2021/12/26 07:53:17;;;;;;;28.87;26.03;;;2.30;99.90;;;;;;4979154;28;20491;-83
2021/12/26 07:55:46;;;;;;;27.40;24.90;;;2.30;99.90;;;;;;4980556;28;21130;-83
2021/12/26 07:58:16;;;;;;;29.27;26.47;;;2.30;99.90;;;;;;4979095;28;20514;-83
2021/12/26 08:00:45;;;;;;;27.67;25.00;;;2.40;99.90;;;;;;4980066;28;20478;-83
2021/12/26 08:03:12;;;;;;;27.23;24.63;;;2.20;99.90;;;;;;4981422;28;20482;-83
2021/12/26 08:05:48;;;;;;;28.90;26.30;;;2.30;99.90;;;;;;4985275;28;20459;-84
2021/12/26 08:08:26;;;;;;;25.80;23.10;;;2.40;99.90;;;;;;4986498;28;20480;-83
2021/12/26 08:11:01;;;;;;;29.30;26.53;;;2.40;99.90;;;;;;4985086;28;20505;-83
2021/12/26 08:13:44;;;;;;;29.10;26.10;;;2.40;99.90;;;;;;4983594;28;20506;-83
2021/12/26 08:16:29;;;;;;;26.03;23.37;;;2.50;99.90;;;;;;4984657;28;20459;-83
2021/12/26 08:18:59;;;;;;;25.33;22.60;;;2.50;99.90;;;;;;4983756;28;20482;-83
2021/12/26 08:22:06;;;;;;;23.90;21.77;;;2.50;99.90;;;;;;4982871;28;20545;-83
2021/12/26 08:25:15;;;;;;;28.90;26.30;;;2.50;99.90;;;;;;4982962;28;20884;-83
2021/12/26 08:27:42;;;;;;;27.80;24.83;;;2.60;99.90;;;;;;4981378;28;21038;-82
2021/12/26 08:30:11;;;;;;;29.87;25.30;;;2.50;99.90;;;;;;4981631;28;20510;-83
2021/12/26 08:32:41;;;;;;;26.33;23.77;;;2.50;99.90;;;;;;4981161;28;21014;-83
2021/12/26 08:35:08;;;;;;;24.80;22.30;;;2.60;99.90;;;;;;4980074;28;20451;-83
2021/12/26 08:37:40;;;;;;;25.97;23.57;;;2.60;99.90;;;;;;4980193;28;21006;-83
2021/12/26 08:40:10;;;;;;;44.87;40.47;;;2.60;99.90;;;;;;4983679;28;20461;-83
2021/12/26 08:42:37;;;;;;;31.50;28.70;;;2.60;99.90;;;;;;4984471;28;20474;-83
2021/12/26 08:45:08;;;;;;;25.43;22.83;;;2.70;99.90;;;;;;4982832;28;20537;-83
2021/12/26 08:47:34;;;;;;;27.50;23.00;;;2.70;99.90;;;;;;4981528;28;20467;-82
2021/12/26 08:50:04;;;;;;;33.50;27.73;;;2.70;99.90;;;;;;4982347;28;20490;-83
2021/12/26 08:52:31;;;;;;;25.43;20.80;;;2.70;99.90;;;;;;4982603;28;21110;-83
2021/12/26 08:55:01;;;;;;;22.53;20.20;;;2.80;99.90;;;;;;4980762;28;20462;-83
2021/12/26 08:57:29;;;;;;;21.43;19.20;;;2.80;99.90;;;;;;4981933;28;20453;-83
2021/12/26 08:59:56;;;;;;;23.27;20.07;;;2.90;99.90;;;;;;4979976;28;20456;-83
2021/12/26 09:02:22;;;;;;;19.80;17.70;;;3.00;99.90;;;;;;4980944;28;20470;-83
2021/12/26 09:04:49;;;;;;;20.40;18.20;;;2.90;99.90;;;;;;4980155;28;20539;-82
2021/12/26 09:07:20;;;;;;;21.70;17.30;;;2.90;99.90;;;;;;4979904;28;20479;-83
2021/12/26 09:09:49;;;;;;;22.60;18.13;;;3.10;99.90;;;;;;4980498;28;20529;-82
2021/12/26 09:12:16;;;;;;;21.33;18.20;;;3.00;99.90;;;;;;4980244;28;20459;-83
2021/12/26 09:14:43;;;;;;;20.93;17.23;;;3.00;99.90;;;;;;4980537;28;20486;-83
2021/12/26 09:17:10;;;;;;;19.20;16.63;;;3.00;99.90;;;;;;4980838;28;20457;-83
2021/12/26 09:19:37;;;;;;;24.07;16.03;;;3.10;99.90;;;;;;4979372;28;20455;-83
2021/12/26 09:22:06;;;;;;;19.27;16.70;;;3.20;99.90;;;;;;4978512;28;20455;-82
2021/12/26 09:24:35;;;;;;;18.50;14.27;;;3.20;99.90;;;;;;4978592;28;20542;-82
2021/12/26 09:27:03;;;;;;;17.63;15.20;;;3.20;99.90;;;;;;4977000;28;20475;-82
2021/12/26 09:29:30;;;;;;;22.80;16.30;;;3.30;99.90;;;;;;4977494;28;20561;-82
2021/12/26 09:31:57;;;;;;;26.53;16.50;;;3.30;99.90;;;;;;4976745;28;20526;-82
2021/12/26 09:34:25;;;;;;;21.27;16.40;;;3.30;99.90;;;;;;4979695;28;20475;-82
2021/12/26 09:36:52;;;;;;;22.30;16.83;;;3.30;99.90;;;;;;4981251;28;20527;-82
2021/12/26 09:39:19;;;;;;;20.87;14.97;;;3.40;99.90;;;;;;4990093;28;20461;-81
2021/12/26 09:41:47;;;;;;;20.63;16.27;;;3.40;99.90;;;;;;4974510;28;20464;-82
2021/12/26 09:44:14;;;;;;;18.60;14.70;;;3.40;99.90;;;;;;4977474;28;20497;-83
2021/12/26 09:46:41;;;;;;;20.93;15.10;;;3.50;99.90;;;;;;4977865;28;20465;-83
2021/12/26 09:49:08;;;;;;;20.40;16.00;;;3.50;99.90;;;;;;4977170;28;20459;-83
2021/12/26 09:51:35;;;;;;;19.57;16.50;;;3.60;99.90;;;;;;4976860;28;20987;-83
2021/12/26 09:54:04;;;;;;;20.60;14.50;;;3.60;99.90;;;;;;4977488;28;20466;-82
2021/12/26 09:56:31;;;;;;;17.10;12.03;;;3.60;99.90;;;;;;4978239;28;20465;-83
2021/12/26 09:59:05;;;;;;;29.73;19.50;;;3.60;99.90;;;;;;4965901;28;20448;-82
2021/12/26 10:01:37;;;;;;;24.03;16.33;;;3.70;99.90;;;;;;4976655;28;20455;-83
2021/12/26 10:04:17;;;;;;;21.10;15.60;;;3.50;99.90;;;;;;4977991;28;20490;-83
2021/12/26 10:06:48;;;;;;;23.00;16.43;;;3.60;99.90;;;;;;4978221;28;20454;-83
2021/12/26 10:09:21;;;;;;;22.23;16.03;;;3.60;99.90;;;;;;4978611;28;20957;-83
2021/12/26 10:11:53;;;;;;;22.70;17.17;;;3.60;99.90;;;;;;4977487;28;20527;-83
2021/12/26 10:14:23;;;;;;;22.00;19.10;;;3.60;99.90;;;;;;4978866;28;20495;-83
2021/12/26 10:16:53;;;;;;;23.80;21.10;;;3.50;99.90;;;;;;4977497;28;20455;-83
2021/12/26 10:19:25;;;;;;;28.23;25.37;;;3.40;99.90;;;;;;4979604;28;20455;-83
2021/12/26 10:21:56;;;;;;;24.17;21.97;;;3.40;99.90;;;;;;4980578;28;20525;-83
2021/12/26 10:24:32;;;;;;;29.43;26.50;;;3.60;99.90;;;;;;4980069;28;20467;-83
2021/12/26 10:27:04;;;;;;;29.77;26.70;;;3.60;99.90;;;;;;4976336;28;20467;-82
2021/12/26 10:29:51;;;;;;;34.93;31.90;;;3.70;99.90;;;;;;4978093;28;20455;-84
2021/12/26 10:32:20;;;;;;;53.03;49.17;;;3.60;99.90;;;;;;4975119;28;21182;-82
2021/12/26 10:34:54;;;;;;;57.17;53.40;;;3.50;99.90;;;;;;4974173;28;20459;-83
2021/12/26 10:37:29;;;;;;;53.73;50.23;;;3.60;99.90;;;;;;4976413;28;20447;-83
2021/12/26 10:40:03;;;;;;;64.50;60.37;;;3.60;99.90;;;;;;4974415;28;20966;-82
2021/12/26 10:43:08;;;;;;;66.20;62.43;;;3.50;99.90;;;;;;4976296;28;20475;-83
2021/12/26 10:45:41;;;;;;;70.43;66.33;;;3.50;99.90;;;;;;4977798;28;20536;-83
2021/12/26 10:48:36;;;;;;;70.47;66.50;;;3.50;99.90;;;;;;4977381;28;20489;-82
2021/12/26 10:51:47;;;;;;;70.37;66.53;;;3.50;99.90;;;;;;4979018;28;20459;-84
2021/12/26 10:54:14;;;;;;;90.10;84.83;;;3.70;99.90;;;;;;4977898;28;20506;-82
2021/12/26 10:56:42;;;;;;;78.97;74.57;;;3.70;99.90;;;;;;4975904;28;20478;-82
2021/12/26 10:59:25;;;;;;;83.13;78.73;;;3.80;99.90;;;;;;4976200;28;21018;-82
2021/12/26 11:01:56;;;;;;;55.50;51.90;;;4.10;99.90;;;;;;4976491;28;20458;-82
2021/12/26 11:04:24;;;;;;;42.73;39.50;;;4.20;99.90;;;;;;4975996;28;20470;-83
2021/12/26 11:07:10;;;;;;;38.10;34.70;;;4.30;99.90;;;;;;4976405;28;20809;-83
2021/12/26 11:09:43;;;;;;;27.23;24.83;;;4.20;99.90;;;;;;4975959;28;21018;-82
2021/12/26 11:12:15;;;;;;;22.63;20.23;;;4.30;99.90;;;;;;4976536;28;20460;-82
2021/12/26 11:15:08;;;;;;;26.70;23.97;;;4.20;99.90;;;;;;4975587;28;20975;-82
2021/12/26 11:17:44;;;;;;;22.43;20.13;;;4.40;99.90;;;;;;4977155;28;20448;-82
2021/12/26 11:20:25;;;;;;;23.90;19.93;;;4.40;99.90;;;;;;4976003;28;20534;-82
2021/12/26 11:26:13;;;;;;;24.70;21.57;;;4.40;99.90;;;;;;4976278;28;20459;-82
2021/12/26 11:28:54;;;;;;;25.20;22.13;;;4.50;99.90;;;;;;4983902;28;20474;-82
2021/12/26 11:31:38;;;;;;;31.25;28.63;;;4.40;99.90;;;;;;4984329;28;20544;-83
2021/12/26 11:34:11;;;;;;;24.30;21.80;;;4.60;99.90;;;;;;4983676;28;20471;-82
2021/12/26 11:36:41;;;;;;;22.30;19.03;;;4.60;99.90;;;;;;4982788;28;20489;-82
2021/12/26 11:39:08;;;;;;;19.00;15.97;;;4.70;99.90;;;;;;4981758;28;20454;-81
2021/12/26 11:41:42;;;;;;;22.00;16.83;;;4.60;99.90;;;;;;4981024;28;20509;-81
2021/12/26 11:44:28;;;;;;;22.23;17.30;;;4.60;99.90;;;;;;4981128;28;20541;-81
2021/12/26 11:47:11;;;;;;;21.43;18.80;;;4.60;99.90;;;;;;4981413;28;20468;-81
2021/12/26 11:50:05;;;;;;;21.00;15.03;;;4.60;99.90;;;;;;4980926;28;20966;-82
2021/12/26 11:53:02;;;;;;;20.13;16.27;;;4.70;99.90;;;;;;4981172;28;20478;-81
2021/12/26 11:55:38;;;;;;;20.27;16.23;;;4.60;99.90;;;;;;4981088;28;20486;-81
2021/12/26 11:58:32;;;;;;;23.10;16.63;;;4.80;99.90;;;;;;4980876;28;20450;-82
2021/12/26 12:01:01;;;;;;;16.67;13.53;;;4.80;99.90;;;;;;4981429;28;20963;-81
2021/12/26 12:03:30;;;;;;;22.60;16.67;;;4.90;99.80;;;;;;4981026;28;20518;-81
2021/12/26 12:06:00;;;;;;;18.00;14.17;;;5.10;99.40;;;;;;4980648;28;20445;-81
2021/12/26 12:08:31;;;;;;;20.70;15.10;;;5.20;98.20;;;;;;4980247;28;20502;-82
2021/12/26 12:11:00;;;;;;;16.80;13.00;;;5.20;97.50;;;;;;4979343;28;20450;-81
2021/12/26 12:13:49;;;;;;;19.40;14.63;;;5.20;97.00;;;;;;4980416;28;20466;-81
2021/12/26 12:16:34;;;;;;;20.30;13.70;;;5.30;97.40;;;;;;4980412;28;20546;-81
2021/12/26 12:19:11;;;;;;;17.37;12.40;;;5.40;96.30;;;;;;4980859;28;20447;-81
2021/12/26 12:21:44;;;;;;;20.77;13.67;;;5.20;95.10;;;;;;4980662;28;20454;-82
2021/12/26 12:24:13;;;;;;;18.30;14.00;;;5.30;96.00;;;;;;4981143;28;21051;-82
2021/12/26 12:26:46;;;;;;;18.90;14.00;;;5.10;96.20;;;;;;4980537;28;20469;-82
2021/12/26 12:29:52;;;;;;;20.97;14.50;;;5.20;96.20;;;;;;4980731;28;20475;-82
2021/12/26 12:32:22;;;;;;;18.00;13.67;;;5.30;96.80;;;;;;4976175;28;20538;-82
2021/12/26 12:34:55;;;;;;;18.87;14.70;;;5.20;96.20;;;;;;4978887;28;20533;-82
2021/12/26 12:37:40;;;;;;;19.10;14.40;;;5.20;96.30;;;;;;4977282;28;20446;-82
2021/12/26 12:40:20;;;;;;;18.53;13.17;;;5.10;96.20;;;;;;4977875;28;20495;-82
2021/12/26 12:43:02;;;;;;;18.87;13.47;;;5.00;96.10;;;;;;4977730;28;20994;-82
2021/12/26 12:45:30;;;;;;;19.73;13.33;;;4.80;96.10;;;;;;4978069;28;20447;-82
2021/12/26 12:48:23;;;;;;;17.40;12.90;;;4.80;97.30;;;;;;4977965;28;20483;-82
2021/12/26 12:50:51;;;;;;;20.60;13.80;;;4.70;97.40;;;;;;4975231;28;20451;-82
2021/12/26 12:53:41;;;;;;;16.83;13.23;;;4.60;97.30;;;;;;4977765;28;20550;-82
2021/12/26 12:56:09;;;;;;;20.23;13.77;;;4.70;97.20;;;;;;4977610;28;20443;-82
2021/12/26 12:58:36;;;;;;;17.67;13.60;;;4.70;97.50;;;;;;4977352;28;20455;-82